createdAt,value
2023-04-08T00:00:35.160Z,8.43
2023-04-08T00:01:37.245Z,8.75
2023-04-08T00:02:39.612Z,8.61
2023-04-08T00:03:41.857Z,7.93
2023-04-08T00:04:46.082Z,8.22
2023-04-08T00:05:48.304Z,8.25
2023-04-08T00:06:50.446Z,8.25
2023-04-08T00:07:52.443Z,7.51
2023-04-08T00:08:54.486Z,8.37
2023-04-08T00:09:56.474Z,7.51
2023-04-08T00:10:58.635Z,7.21
2023-04-08T00:12:00.488Z,8.13
2023-04-08T00:13:02.516Z,7.92
2023-04-08T00:14:04.537Z,8.33
2023-04-08T00:15:07.028Z,8.45
2023-04-08T00:16:09.206Z,8.28
2023-04-08T00:17:11.163Z,8.32
2023-04-08T00:18:14.663Z,8.03
2023-04-08T00:19:16.584Z,7.40
2023-04-08T00:20:18.965Z,7.65
2023-04-08T00:21:21.251Z,7.37
2023-04-08T00:22:23.282Z,8.31
2023-04-08T00:23:25.391Z,7.25
2023-04-08T00:24:27.456Z,7.74
2023-04-08T00:25:30.034Z,7.71
2023-04-08T00:26:33.273Z,7.75
2023-04-08T00:27:35.313Z,7.18
2023-04-08T00:28:37.901Z,7.38
2023-04-08T00:29:39.834Z,7.59
2023-04-08T00:30:43.513Z,7.35
2023-04-08T00:31:45.702Z,6.92
2023-04-08T00:32:47.608Z,6.55
2023-04-08T00:33:50.207Z,7.17
2023-04-08T00:34:52.108Z,6.69
2023-04-08T00:35:54.179Z,6.97
2023-04-08T00:36:56.530Z,6.29
2023-04-08T00:37:59.252Z,7.30
2023-04-08T00:39:02.045Z,6.75
2023-04-08T00:40:05.818Z,7.51
2023-04-08T00:41:07.911Z,7.44
2023-04-08T00:42:11.248Z,7.13
2023-04-08T00:43:13.343Z,7.01
2023-04-08T00:44:15.434Z,5.95
2023-04-08T00:45:17.460Z,6.81
2023-04-08T00:46:20.869Z,6.29
2023-04-08T00:47:23.441Z,6.72
2023-04-08T00:48:25.391Z,7.87
2023-04-08T00:49:27.679Z,7.35
2023-04-08T00:50:29.769Z,7.73
2023-04-08T00:51:31.769Z,6.91
2023-04-08T00:52:33.698Z,7.68
2023-04-08T00:53:35.943Z,7.37
2023-04-08T00:54:38.045Z,7.19
2023-04-08T00:55:40.241Z,6.61
2023-04-08T00:56:43.741Z,7.64
2023-04-08T00:57:46.923Z,6.33
2023-04-08T00:58:50.823Z,6.69
2023-04-08T00:59:53.111Z,7.32
2023-04-08T01:01:01.751Z,7.17
2023-04-08T01:02:38.871Z,6.32
2023-04-08T01:03:47.605Z,6.72
2023-04-08T01:04:53.513Z,7.55
2023-04-08T01:06:17.260Z,6.69
2023-04-08T01:07:25.803Z,6.81
2023-04-08T01:08:30.249Z,6.94
2023-04-08T01:09:34.965Z,7.32
2023-04-08T01:10:40.247Z,6.70
2023-04-08T01:11:44.082Z,7.04
2023-04-08T01:12:55.504Z,7.21
2023-04-08T01:15:06.427Z,6.51
2023-04-08T01:16:12.284Z,6.62
2023-04-08T01:17:16.632Z,6.68
2023-04-08T01:18:20.655Z,6.74
2023-04-08T01:19:29.103Z,6.76
2023-04-08T01:20:31.877Z,6.69
2023-04-08T01:21:36.829Z,6.98
2023-04-08T01:22:59.478Z,6.21
2023-04-08T01:24:15.227Z,6.69
2023-04-08T01:25:20.723Z,6.81
2023-04-08T01:26:25.439Z,6.81
2023-04-08T01:27:31.156Z,6.91
2023-04-08T01:28:34.972Z,7.03
2023-04-08T01:29:38.336Z,6.82
2023-04-08T01:30:42.126Z,6.72
2023-04-08T01:31:45.471Z,6.81
2023-04-08T01:32:48.905Z,6.63
2023-04-08T01:33:51.964Z,6.48
2023-04-08T01:34:57.123Z,6.60
2023-04-08T01:36:01.043Z,6.78
2023-04-08T01:37:05.810Z,6.51
2023-04-08T01:38:10.492Z,6.39
2023-04-08T01:39:15.041Z,7.53
2023-04-08T01:40:19.285Z,7.48
2023-04-08T01:41:21.691Z,7.24
2023-04-08T01:42:26.711Z,7.63
2023-04-08T01:43:30.037Z,7.47
2023-04-08T01:44:32.824Z,7.84
2023-04-08T01:45:34.919Z,7.37
2023-04-08T01:46:39.716Z,7.07
2023-04-08T01:47:44.653Z,7.44
2023-04-08T01:48:48.327Z,7.37
2023-04-08T01:49:52.824Z,8.34
2023-04-08T01:50:56.467Z,8.84
2023-04-08T01:52:02.363Z,7.63
2023-04-08T01:53:07.384Z,7.79
2023-04-08T01:54:09.612Z,7.58
2023-04-08T01:55:12.132Z,8.15
2023-04-08T01:56:15.777Z,7.92
2023-04-08T01:57:24.283Z,7.99
2023-04-08T01:58:30.091Z,7.58
2023-04-08T01:59:34.958Z,8.84
2023-04-08T02:00:40.092Z,7.61
2023-04-08T02:01:44.184Z,7.26
2023-04-08T02:02:48.016Z,7.76
2023-04-08T02:03:52.619Z,8.03
2023-04-08T02:04:55.030Z,7.77
2023-04-08T02:05:56.948Z,8.40
2023-04-08T02:07:00.507Z,8.76
2023-04-08T02:08:02.579Z,7.71
2023-04-08T02:09:04.506Z,8.17
2023-04-08T02:10:08.096Z,7.93
2023-04-08T02:11:10.137Z,7.11
2023-04-08T02:12:12.311Z,6.93
2023-04-08T02:13:14.204Z,8.30
2023-04-08T02:14:16.628Z,7.57
2023-04-08T02:15:18.616Z,7.73
2023-04-08T02:16:24.465Z,8.12
2023-04-08T02:17:36.242Z,7.68
2023-04-08T02:18:41.365Z,7.88
2023-04-08T02:21:00.456Z,7.55
2023-04-08T02:22:06.116Z,7.68
2023-04-08T02:23:17.424Z,7.97
2023-04-08T02:24:21.276Z,7.57
2023-04-08T02:25:24.969Z,8.58
2023-04-08T02:26:27.060Z,8.18
2023-04-08T02:27:29.743Z,8.57
2023-04-08T02:28:34.511Z,8.52
2023-04-08T02:29:38.714Z,7.89
2023-04-08T02:30:49.937Z,7.31
2023-04-08T02:31:53.173Z,8.10
2023-04-08T02:32:57.611Z,8.53
2023-04-08T02:34:00.277Z,8.42
2023-04-08T02:35:04.065Z,8.61
2023-04-08T02:36:07.762Z,8.76
2023-04-08T02:37:09.860Z,8.13
2023-04-08T02:38:13.711Z,7.98
2023-04-08T02:39:16.912Z,8.99
2023-04-08T02:40:28.935Z,8.86
2023-04-08T02:41:30.903Z,7.93
2023-04-08T02:42:32.945Z,8.63
2023-04-08T02:43:34.917Z,8.06
2023-04-08T02:44:36.804Z,7.97
2023-04-08T02:45:41.375Z,7.77
2023-04-08T02:46:43.664Z,8.38
2023-04-08T02:47:45.671Z,8.81
2023-04-08T02:48:48.498Z,8.48
2023-04-08T02:49:50.652Z,7.64
2023-04-08T02:50:52.613Z,7.62
2023-04-08T02:51:54.507Z,8.28
2023-04-08T02:52:56.674Z,8.26
2023-04-08T02:53:58.595Z,7.81
2023-04-08T02:55:01.028Z,8.14
2023-04-08T02:56:03.346Z,8.29
2023-04-08T02:57:05.384Z,9.49
2023-04-08T02:58:07.328Z,9.36
2023-04-08T02:59:09.207Z,8.70
2023-04-08T03:00:12.872Z,9.48
2023-04-08T03:01:14.834Z,10.25
2023-04-08T03:02:16.859Z,10.74
2023-04-08T03:03:19.097Z,10.91
2023-04-08T03:04:21.267Z,11.04
2023-04-08T03:05:23.287Z,12.00
2023-04-08T03:06:25.468Z,10.22
2023-04-08T03:07:28.234Z,10.20
2023-04-08T03:08:30.262Z,11.37
2023-04-08T03:09:32.195Z,10.49
2023-04-08T03:10:34.459Z,11.13
2023-04-08T03:11:36.346Z,9.86
2023-04-08T03:12:38.214Z,9.80
2023-04-08T03:13:40.069Z,11.07
2023-04-08T03:14:42.140Z,10.07
2023-04-08T03:15:44.121Z,9.73
2023-04-08T03:16:46.326Z,9.33
2023-04-08T03:17:48.450Z,9.08
2023-04-08T03:18:50.594Z,9.83
2023-04-08T03:19:53.534Z,9.29
2023-04-08T03:20:55.580Z,8.78
2023-04-08T03:21:57.621Z,8.95
2023-04-08T03:22:59.600Z,8.91
2023-04-08T03:24:03.516Z,8.15
2023-04-08T03:25:06.454Z,9.11
2023-04-08T03:26:09.524Z,8.39
2023-04-08T03:27:14.242Z,8.99
2023-04-08T03:28:16.297Z,8.48
2023-04-08T03:29:18.724Z,8.67
2023-04-08T03:30:21.224Z,8.84
2023-04-08T03:31:23.553Z,7.80
2023-04-08T03:32:25.518Z,8.69
2023-04-08T03:33:27.597Z,8.15
2023-04-08T03:34:30.019Z,8.25
2023-04-08T03:35:31.962Z,8.03
2023-04-08T03:36:34.154Z,8.50
2023-04-08T03:37:36.152Z,8.13
2023-04-08T03:38:40.294Z,8.26
2023-04-08T03:39:42.237Z,8.41
2023-04-08T03:40:44.233Z,8.67
2023-04-08T03:41:46.099Z,9.17
2023-04-08T03:42:48.072Z,9.10
2023-04-08T03:43:50.070Z,8.41
2023-04-08T03:44:52.011Z,9.25
2023-04-08T03:45:55.250Z,9.23
2023-04-08T03:46:57.408Z,8.99
2023-04-08T03:47:59.314Z,8.47
2023-04-08T03:49:01.360Z,7.52
2023-04-08T03:50:03.615Z,8.21
2023-04-08T03:51:06.829Z,8.63
2023-04-08T03:52:08.776Z,8.73
2023-04-08T03:53:10.953Z,9.03
2023-04-08T03:54:12.963Z,8.87
2023-04-08T03:55:14.901Z,8.91
2023-04-08T03:56:17.118Z,9.47
2023-04-08T03:57:19.115Z,10.41
2023-04-08T03:58:21.131Z,10.20
2023-04-08T03:59:23.798Z,10.92
2023-04-08T04:00:26.179Z,10.55
2023-04-08T04:01:28.469Z,9.79
2023-04-08T04:02:31.165Z,11.24
2023-04-08T04:03:33.750Z,10.65
2023-04-08T04:04:36.694Z,10.68
2023-04-08T04:05:40.446Z,10.06
2023-04-08T04:06:42.686Z,10.38
2023-04-08T04:07:45.025Z,10.62
2023-04-08T04:08:46.942Z,10.66
2023-04-08T04:09:48.973Z,9.66
2023-04-08T04:10:50.949Z,10.10
2023-04-08T04:11:52.802Z,10.37
2023-04-08T04:12:54.915Z,9.87
2023-04-08T04:13:58.775Z,9.47
2023-04-08T04:15:00.721Z,9.72
2023-04-08T04:16:03.419Z,9.53
2023-04-08T04:17:05.534Z,9.81
2023-04-08T04:18:07.551Z,9.81
2023-04-08T04:19:09.684Z,8.98
2023-04-08T04:20:13.085Z,9.05
2023-04-08T04:21:15.354Z,9.28
2023-04-08T04:22:17.281Z,8.49
2023-04-08T04:23:19.144Z,9.20
2023-04-08T04:24:21.057Z,8.57
2023-04-08T04:25:23.288Z,7.92
2023-04-08T04:26:25.812Z,8.15
2023-04-08T04:27:27.933Z,8.52
2023-04-08T04:28:29.801Z,8.79
2023-04-08T04:29:31.736Z,8.32
2023-04-08T04:30:36.807Z,7.99
2023-04-08T04:31:38.954Z,8.32
2023-04-08T04:32:43.150Z,8.40
2023-04-08T04:33:45.292Z,8.57
2023-04-08T04:34:47.227Z,8.11
2023-04-08T04:35:49.279Z,8.33
2023-04-08T04:36:51.512Z,8.56
2023-04-08T04:37:53.510Z,8.49
2023-04-08T04:38:55.786Z,8.22
2023-04-08T04:39:57.999Z,8.15
2023-04-08T04:41:00.134Z,9.08
2023-04-08T04:42:02.250Z,9.28
2023-04-08T04:43:05.304Z,8.47
2023-04-08T04:44:07.215Z,8.57
2023-04-08T04:45:09.918Z,8.63
2023-04-08T04:46:12.827Z,8.82
2023-04-08T04:47:14.761Z,8.03
2023-04-08T04:48:16.643Z,8.45
2023-04-08T04:49:18.993Z,9.41
2023-04-08T04:50:21.080Z,8.40
2023-04-08T04:51:22.968Z,8.51
2023-04-08T04:52:24.934Z,8.47
2023-04-08T04:53:28.523Z,7.72
2023-04-08T04:54:31.217Z,7.89
2023-04-08T04:55:33.228Z,7.67
2023-04-08T04:56:35.291Z,8.47
2023-04-08T04:57:37.141Z,8.15
2023-04-08T04:58:39.027Z,7.66
2023-04-08T04:59:41.308Z,7.81
2023-04-08T05:00:43.281Z,8.49
2023-04-08T05:01:45.334Z,8.09
2023-04-08T05:02:47.678Z,8.05
2023-04-08T05:03:49.685Z,7.99
2023-04-08T05:04:51.817Z,8.88
2023-04-08T05:05:54.337Z,8.11
2023-04-08T05:07:00.956Z,8.19
2023-04-08T05:08:03.894Z,8.92
2023-04-08T05:09:05.903Z,8.22
2023-04-08T05:10:09.838Z,8.01
2023-04-08T05:11:11.789Z,7.74
2023-04-08T05:12:13.785Z,9.12
2023-04-08T05:13:16.755Z,11.41
2023-04-08T05:14:18.662Z,8.36
2023-04-08T05:15:21.977Z,8.03
2023-04-08T05:16:24.043Z,14.63
2023-04-08T05:17:26.218Z,10.67
2023-04-08T05:18:28.250Z,7.99
2023-04-08T05:19:30.170Z,8.16
2023-04-08T05:20:32.247Z,7.19
2023-04-08T05:21:34.146Z,6.60
2023-04-08T05:22:36.288Z,7.43
2023-04-08T05:23:38.193Z,6.81
2023-04-08T05:24:40.095Z,7.96
2023-04-08T05:25:42.399Z,6.69
2023-04-08T05:26:44.631Z,8.97
2023-04-08T05:27:46.493Z,7.31
2023-04-08T05:28:51.312Z,8.27
2023-04-08T05:29:53.840Z,8.54
2023-04-08T05:30:55.902Z,7.06
2023-04-08T05:31:59.809Z,7.01
2023-04-08T05:33:01.727Z,7.13
2023-04-08T05:34:03.712Z,6.97
2023-04-08T05:35:06.948Z,8.39
2023-04-08T05:36:10.697Z,7.60
2023-04-08T05:37:12.786Z,8.07
2023-04-08T05:38:14.738Z,7.44
2023-04-08T05:39:20.220Z,7.49
2023-04-08T05:40:22.411Z,7.71
2023-04-08T05:41:24.799Z,6.95
2023-04-08T05:42:26.812Z,8.92
2023-04-08T05:43:28.687Z,7.58
2023-04-08T05:44:31.428Z,8.20
2023-04-08T05:45:33.524Z,7.93
2023-04-08T05:46:35.632Z,7.35
2023-04-08T05:47:37.849Z,8.01
2023-04-08T05:48:39.997Z,7.77
2023-04-08T05:49:41.954Z,7.54
2023-04-08T05:50:44.200Z,7.59
2023-04-08T05:51:46.667Z,7.93
2023-04-08T05:52:48.717Z,7.57
2023-04-08T05:53:54.705Z,6.82
2023-04-08T05:54:56.761Z,7.68
2023-04-08T05:55:58.671Z,7.40
2023-04-08T05:57:00.998Z,7.21
2023-04-08T05:58:02.987Z,6.91
2023-04-08T05:59:04.879Z,6.96
2023-04-08T06:00:10.276Z,7.51
2023-04-08T06:01:12.568Z,6.43
2023-04-08T06:02:14.584Z,6.53
2023-04-08T06:03:19.716Z,6.53
2023-04-08T06:04:20.623Z,6.89
2023-04-08T06:05:22.758Z,6.17
2023-04-08T06:06:25.226Z,6.83
2023-04-08T06:07:29.312Z,6.51
2023-04-08T06:08:31.289Z,6.38
2023-04-08T06:09:36.230Z,6.49
2023-04-08T06:10:38.510Z,6.38
2023-04-08T06:11:41.384Z,6.61
2023-04-08T06:12:44.178Z,6.01
2023-04-08T06:13:46.134Z,7.01
2023-04-08T06:14:50.041Z,7.59
2023-04-08T06:15:52.073Z,6.98
2023-04-08T06:16:54.099Z,7.81
2023-04-08T06:17:56.916Z,7.49
2023-04-08T06:18:59.121Z,7.60
2023-04-08T06:20:01.736Z,8.27
2023-04-08T06:21:03.784Z,7.61
2023-04-08T06:22:05.789Z,8.35
2023-04-08T06:23:08.007Z,7.41
2023-04-08T06:24:09.990Z,7.21
2023-04-08T06:25:13.120Z,7.66
2023-04-08T06:26:15.350Z,6.85
2023-04-08T06:27:17.419Z,7.75
2023-04-08T06:28:19.289Z,7.94
2023-04-08T06:29:22.518Z,7.75
2023-04-08T06:30:24.762Z,8.07
2023-04-08T06:31:26.657Z,7.59
2023-04-08T06:32:28.686Z,7.80
2023-04-08T06:33:31.396Z,8.43
2023-04-08T06:34:34.191Z,7.91
2023-04-08T06:35:37.097Z,8.09
2023-04-08T06:36:39.366Z,7.81
2023-04-08T06:37:41.359Z,7.88
2023-04-08T06:38:43.268Z,7.63
2023-04-08T06:39:45.279Z,9.18
2023-04-08T06:40:47.510Z,7.12
2023-04-08T06:41:49.550Z,8.87
2023-04-08T06:42:52.686Z,7.89
2023-04-08T06:43:55.010Z,7.31
2023-04-08T06:44:57.164Z,6.17
2023-04-08T06:45:59.430Z,5.98
2023-04-08T06:47:01.723Z,5.91
2023-04-08T06:48:05.019Z,5.66
2023-04-08T06:49:06.981Z,5.54
2023-04-08T06:50:09.913Z,5.38
2023-04-08T06:51:11.885Z,5.32
2023-04-08T06:52:15.708Z,5.65
2023-04-08T06:53:17.594Z,4.99
2023-04-08T06:54:19.454Z,5.56
2023-04-08T06:55:21.308Z,5.74
2023-04-08T06:56:23.671Z,5.91
2023-04-08T06:57:25.741Z,4.83
2023-04-08T06:58:27.716Z,5.82
2023-04-08T06:59:29.804Z,6.11
2023-04-08T07:00:31.970Z,4.81
2023-04-08T07:01:33.936Z,5.78
2023-04-08T07:02:36.110Z,4.27
2023-04-08T07:03:38.518Z,4.73
2023-04-08T07:04:40.545Z,4.31
2023-04-08T07:05:42.433Z,4.00
2023-04-08T07:06:44.421Z,4.37
2023-04-08T07:07:46.775Z,4.18
2023-04-08T07:08:48.972Z,3.64
2023-04-08T07:09:51.566Z,4.89
2023-04-08T07:10:53.737Z,4.31
2023-04-08T07:11:55.609Z,4.30
2023-04-08T07:12:57.671Z,3.93
2023-04-08T07:13:59.541Z,4.42
2023-04-08T07:15:01.454Z,4.30
2023-04-08T07:16:04.347Z,4.39
2023-04-08T07:17:06.268Z,4.32
2023-04-08T07:18:08.240Z,4.39
2023-04-08T07:19:10.329Z,4.50
2023-04-08T07:20:13.197Z,4.77
2023-04-08T07:21:15.368Z,4.45
2023-04-08T07:22:17.546Z,3.65
2023-04-08T07:23:20.340Z,4.19
2023-04-08T07:24:23.525Z,5.47
2023-04-08T07:25:25.622Z,9.81
2023-04-08T07:26:27.805Z,8.57
2023-04-08T07:27:29.737Z,5.19
2023-04-08T07:28:31.608Z,4.63
2023-04-08T07:29:33.476Z,4.77
2023-04-08T07:30:35.604Z,4.55
2023-04-08T07:31:38.867Z,4.37
2023-04-08T07:32:40.768Z,4.61
2023-04-08T07:33:44.908Z,4.41
2023-04-08T07:34:46.784Z,5.06
2023-04-08T07:35:48.697Z,4.57
2023-04-08T07:36:50.828Z,4.27
2023-04-08T07:37:52.731Z,3.90
2023-04-08T07:38:54.863Z,4.48
2023-04-08T07:39:56.770Z,3.78
2023-04-08T07:40:58.949Z,4.03
2023-04-08T07:42:00.819Z,4.25
2023-04-08T07:43:02.709Z,4.17
2023-04-08T07:44:04.994Z,4.01
2023-04-08T07:45:08.096Z,4.73
2023-04-08T07:46:10.687Z,4.46
2023-04-08T07:47:13.106Z,5.09
2023-04-08T07:48:15.072Z,5.07
2023-04-08T07:49:17.160Z,4.47
2023-04-08T07:50:19.164Z,3.76
2023-04-08T07:51:21.144Z,4.13
2023-04-08T07:52:23.556Z,3.84
2023-04-08T07:53:25.432Z,3.83
2023-04-08T07:54:27.501Z,4.20
2023-04-08T07:56:44.827Z,4.33
2023-04-08T07:57:47.165Z,3.83
2023-04-08T07:58:51.200Z,3.45
2023-04-08T07:59:53.003Z,3.56
2023-04-08T08:00:55.268Z,4.39
2023-04-08T08:01:57.314Z,11.95
2023-04-08T08:02:59.435Z,10.95
2023-04-08T08:04:01.937Z,7.18
2023-04-08T08:05:05.172Z,4.00
2023-04-08T08:06:07.348Z,4.09
2023-04-08T08:07:09.210Z,3.79
2023-04-08T08:08:11.146Z,3.64
2023-04-08T08:09:13.242Z,3.90
2023-04-08T08:10:15.806Z,3.55
2023-04-08T08:11:18.458Z,3.67
2023-04-08T08:12:20.364Z,4.08
2023-04-08T08:13:22.238Z,4.03
2023-04-08T08:14:24.539Z,3.88
2023-04-08T08:15:26.749Z,4.51
2023-04-08T08:16:32.383Z,4.13
2023-04-08T08:17:34.692Z,3.77
2023-04-08T08:18:37.425Z,4.29
2023-04-08T08:19:39.316Z,3.58
2023-04-08T08:20:41.568Z,3.73
2023-04-08T08:21:43.544Z,4.39
2023-04-08T08:22:54.570Z,3.33
2023-04-08T08:23:52.075Z,4.16
2023-04-08T08:24:58.903Z,4.19
2023-04-08T08:26:06.348Z,4.49
2023-04-08T08:27:13.343Z,4.10
2023-04-08T08:28:15.288Z,3.99
2023-04-08T08:29:17.170Z,3.71
2023-04-08T08:30:19.349Z,3.53
2023-04-08T08:31:21.370Z,3.99
2023-04-08T08:32:23.296Z,3.95
2023-04-08T08:33:25.752Z,3.10
2023-04-08T08:34:29.968Z,4.29
2023-04-08T08:35:32.164Z,3.47
2023-04-08T08:36:35.703Z,4.27
2023-04-08T08:37:37.621Z,4.17
2023-04-08T08:38:40.051Z,4.00
2023-04-08T08:39:41.999Z,4.16
2023-04-08T08:40:45.042Z,4.55
2023-04-08T08:41:47.035Z,4.21
2023-04-08T08:42:52.263Z,4.05
2023-04-08T08:43:55.657Z,4.49
2023-04-08T08:44:59.607Z,4.66
2023-04-08T08:46:01.586Z,4.71
2023-04-08T08:47:04.737Z,3.77
2023-04-08T08:48:09.972Z,4.47
2023-04-08T08:49:12.316Z,3.48
2023-04-08T08:50:14.602Z,4.29
2023-04-08T08:51:18.989Z,4.13
2023-04-08T08:52:21.206Z,6.71
2023-04-08T08:53:35.142Z,3.92
2023-04-08T08:54:35.451Z,4.22
2023-04-08T08:56:42.020Z,4.56
2023-04-08T08:57:43.978Z,4.45
2023-04-08T08:58:46.001Z,4.51
2023-04-08T08:59:48.252Z,4.40
2023-04-08T09:00:50.431Z,4.15
2023-04-08T09:01:52.367Z,4.33
2023-04-08T09:02:54.621Z,3.45
2023-04-08T09:04:09.774Z,3.86
2023-04-08T09:05:12.115Z,4.42
2023-04-08T09:06:17.626Z,3.86
2023-04-08T09:07:23.336Z,3.92
2023-04-08T09:09:50.408Z,4.78
2023-04-08T09:10:56.323Z,4.14
2023-04-08T09:12:05.058Z,3.83
2023-04-08T09:13:07.121Z,4.38
2023-04-08T09:14:23.179Z,3.40
2023-04-08T09:15:25.275Z,3.69
2023-04-08T09:16:27.656Z,3.76
2023-04-08T09:17:39.219Z,4.08
2023-04-08T09:18:41.589Z,3.65
2023-04-08T09:20:08.978Z,4.22
2023-04-08T09:21:13.301Z,4.32
2023-04-08T09:22:15.380Z,3.56
2023-04-08T09:23:19.113Z,4.52
2023-04-08T09:24:29.970Z,3.87
2023-04-08T09:25:33.293Z,3.33
2023-04-08T09:26:36.541Z,3.66
2023-04-08T09:27:38.657Z,3.74
2023-04-08T09:28:42.378Z,3.69
2023-04-08T09:29:44.306Z,4.59
2023-04-08T09:30:46.823Z,3.68
2023-04-08T09:31:55.994Z,3.59
2023-04-08T09:33:00.575Z,3.85
2023-04-08T09:34:11.532Z,3.85
2023-04-08T09:35:13.475Z,3.72
2023-04-08T09:36:17.131Z,3.84
2023-04-08T09:38:31.592Z,3.52
2023-04-08T09:39:33.718Z,3.52
2023-04-08T09:40:37.048Z,4.33
2023-04-08T09:41:40.177Z,3.79
2023-04-08T09:42:47.763Z,3.77
2023-04-08T09:43:53.929Z,3.96
2023-04-08T09:44:57.468Z,3.96
2023-04-08T09:46:02.013Z,3.76
2023-04-08T09:47:11.558Z,3.66
2023-04-08T09:48:20.273Z,4.59
2023-04-08T09:49:31.150Z,5.67
2023-04-08T09:50:37.059Z,4.90
2023-04-08T09:52:04.186Z,4.26
2023-04-08T09:53:10.354Z,4.48
2023-04-08T09:54:16.258Z,3.83
2023-04-08T09:55:21.763Z,4.28
2023-04-08T09:56:28.187Z,4.12
2023-04-08T09:57:56.715Z,4.61
2023-04-08T09:59:01.498Z,3.91
2023-04-08T10:01:22.549Z,3.90
2023-04-08T10:02:28.500Z,4.07
2023-04-08T10:03:40.827Z,3.79
2023-04-08T10:04:45.229Z,3.64
2023-04-08T10:05:49.465Z,4.52
2023-04-08T10:06:55.582Z,3.89
2023-04-08T10:07:58.462Z,3.69
2023-04-08T10:09:02.562Z,3.71
2023-04-08T10:10:06.499Z,3.81
2023-04-08T10:11:09.499Z,3.38
2023-04-08T10:12:11.668Z,3.75
2023-04-08T10:13:14.277Z,4.18
2023-04-08T10:14:16.246Z,3.76
2023-04-08T10:15:33.148Z,3.15
2023-04-08T10:16:35.188Z,3.61
2023-04-08T10:17:37.239Z,3.31
2023-04-08T10:18:39.293Z,3.15
2023-04-08T10:19:41.544Z,3.45
2023-04-08T10:20:46.393Z,3.48
2023-04-08T10:21:48.301Z,3.34
2023-04-08T10:22:50.317Z,3.95
2023-04-08T10:23:54.925Z,3.16
2023-04-08T10:25:19.268Z,3.64
2023-04-08T10:26:41.317Z,3.13
2023-04-08T10:28:46.615Z,3.16
2023-04-08T10:29:48.629Z,3.51
2023-04-08T10:32:03.390Z,3.51
2023-04-08T10:33:14.949Z,2.96
2023-04-08T10:34:22.325Z,3.42
2023-04-08T10:35:39.564Z,3.26
2023-04-08T10:36:42.239Z,2.98
2023-04-08T10:37:44.591Z,3.46
2023-04-08T10:38:48.363Z,2.88
2023-04-08T10:39:50.401Z,3.29
2023-04-08T10:40:54.146Z,3.13
2023-04-08T10:41:56.180Z,3.36
2023-04-08T10:42:59.174Z,3.38
2023-04-08T10:44:04.302Z,3.31
2023-04-08T10:45:08.512Z,3.31
2023-04-08T10:46:11.074Z,3.21
2023-04-08T10:47:13.244Z,2.59
2023-04-08T10:48:21.273Z,3.17
2023-04-08T10:49:26.951Z,3.79
2023-04-08T10:50:30.957Z,2.78
2023-04-08T10:51:33.871Z,3.14
2023-04-08T10:52:38.147Z,3.17
2023-04-08T10:53:40.237Z,4.12
2023-04-08T10:54:45.846Z,3.41
2023-04-08T10:55:48.710Z,3.36
2023-04-08T10:56:52.316Z,3.17
2023-04-08T10:57:55.844Z,3.33
2023-04-08T10:58:58.314Z,3.05
2023-04-08T11:00:00.378Z,2.81
2023-04-08T11:01:06.038Z,3.19
2023-04-08T11:02:13.771Z,3.19
2023-04-08T11:03:16.244Z,3.04
2023-04-08T11:04:18.764Z,3.05
2023-04-08T11:05:22.210Z,3.29
2023-04-08T11:06:24.223Z,3.01
2023-04-08T11:07:26.125Z,3.69
2023-04-08T11:08:32.727Z,3.40
2023-04-08T11:09:34.754Z,3.39
2023-04-08T11:10:39.341Z,3.39
2023-04-08T11:11:43.561Z,3.36
2023-04-08T11:12:45.711Z,2.96
2023-04-08T11:13:53.266Z,3.59
2023-04-08T11:14:52.247Z,2.84
2023-04-08T11:15:56.611Z,2.92
2023-04-08T11:16:58.674Z,2.96
2023-04-08T11:18:01.688Z,3.09
2023-04-08T11:19:05.092Z,3.07
2023-04-08T11:20:09.228Z,3.06
2023-04-08T11:21:14.256Z,4.09
2023-04-08T11:22:16.691Z,2.94
2023-04-08T11:23:19.285Z,3.11
2023-04-08T11:24:22.163Z,2.97
2023-04-08T11:25:25.474Z,3.02
2023-04-08T11:26:32.152Z,3.62
2023-04-08T11:27:34.862Z,2.36
2023-04-08T11:28:38.518Z,2.09
2023-04-08T11:29:41.023Z,2.12
2023-04-08T11:30:45.616Z,2.21
2023-04-08T11:31:47.649Z,2.44
2023-04-08T11:32:50.134Z,2.83
2023-04-08T11:33:54.688Z,3.10
2023-04-08T11:35:03.870Z,2.52
2023-04-08T11:36:06.436Z,2.04
2023-04-08T11:37:08.477Z,2.49
2023-04-08T11:38:13.010Z,2.79
2023-04-08T11:39:15.181Z,2.69
2023-04-08T11:40:20.208Z,2.94
2023-04-08T11:41:22.770Z,2.39
2023-04-08T11:42:30.533Z,2.36
2023-04-08T11:43:45.559Z,2.59
2023-04-08T11:44:49.129Z,2.30
2023-04-08T11:45:52.030Z,2.84
2023-04-08T11:46:58.698Z,2.67
2023-04-08T11:48:16.739Z,2.78
2023-04-08T11:49:21.799Z,2.92
2023-04-08T11:50:25.776Z,2.90
2023-04-08T11:51:28.460Z,2.22
2023-04-08T11:52:47.643Z,2.65
2023-04-08T11:53:52.705Z,2.83
2023-04-08T11:54:57.883Z,2.75
2023-04-08T11:56:20.796Z,2.52
2023-04-08T11:57:40.398Z,2.73
2023-04-08T11:59:50.151Z,2.85
2023-04-08T12:00:55.588Z,2.88
2023-04-08T12:01:57.914Z,2.72
2023-04-08T12:03:01.129Z,2.53
2023-04-08T12:04:03.401Z,2.77
2023-04-08T12:05:09.938Z,2.30
2023-04-08T12:06:14.568Z,2.87
2023-04-08T12:07:17.015Z,2.75
2023-04-08T12:08:21.541Z,3.33
2023-04-08T12:09:23.969Z,2.45
2023-04-08T12:10:27.605Z,2.81
2023-04-08T12:11:30.825Z,2.17
2023-04-08T12:12:32.935Z,2.44
2023-04-08T12:13:35.153Z,2.13
2023-04-08T12:14:37.253Z,2.55
2023-04-08T12:17:07.390Z,2.82
2023-04-08T12:18:10.194Z,2.72
2023-04-08T12:19:14.477Z,2.57
2023-04-08T12:20:20.495Z,2.36
2023-04-08T12:21:24.966Z,2.83
2023-04-08T12:22:32.330Z,2.35
2023-04-08T12:23:37.658Z,3.02
2023-04-08T12:24:41.353Z,2.61
2023-04-08T12:25:43.389Z,2.51
2023-04-08T12:26:45.903Z,2.66
2023-04-08T12:27:53.775Z,2.60
2023-04-08T12:28:56.435Z,2.21
2023-04-08T12:29:59.492Z,2.85
2023-04-08T12:31:09.189Z,3.44
2023-04-08T12:32:15.870Z,2.28
2023-04-08T12:33:20.235Z,3.06
2023-04-08T12:34:28.699Z,1.80
2023-04-08T12:35:34.775Z,3.24
2023-04-08T12:36:52.492Z,2.70
2023-04-08T12:37:57.617Z,2.53
2023-04-08T12:40:22.938Z,2.05
2023-04-08T12:41:42.104Z,1.91
2023-04-08T12:42:46.351Z,1.96
2023-04-08T12:43:52.459Z,2.00
2023-04-08T12:44:56.454Z,2.33
2023-04-08T12:45:58.450Z,2.39
2023-04-08T12:47:03.896Z,1.81
2023-04-08T12:48:06.431Z,2.01
2023-04-08T12:49:09.153Z,2.17
2023-04-08T12:50:14.839Z,2.20
2023-04-08T12:51:16.848Z,2.41
2023-04-08T12:52:23.611Z,2.17
2023-04-08T12:53:26.780Z,2.37
2023-04-08T12:54:28.778Z,2.91
2023-04-08T12:55:34.767Z,2.28
2023-04-08T12:56:43.758Z,2.63
2023-04-08T12:57:47.045Z,2.33
2023-04-08T12:58:53.265Z,2.47
2023-04-08T12:59:57.721Z,2.60
2023-04-08T13:01:07.020Z,2.29
2023-04-08T13:02:18.349Z,2.70
2023-04-08T13:03:25.852Z,2.78
2023-04-08T13:04:30.216Z,2.37
2023-04-08T13:05:43.397Z,2.74
2023-04-08T13:06:39.867Z,3.28
2023-04-08T13:07:45.089Z,2.88
2023-04-08T13:08:49.510Z,2.62
2023-04-08T13:09:54.117Z,2.76
2023-04-08T13:10:57.338Z,3.12
2023-04-08T13:11:59.444Z,3.19
2023-04-08T13:13:01.412Z,2.77
2023-04-08T13:14:03.584Z,3.39
2023-04-08T13:15:13.526Z,3.77
2023-04-08T13:16:19.476Z,3.34
2023-04-08T13:17:32.110Z,3.41
2023-04-08T13:18:42.774Z,3.77
2023-04-08T13:21:29.813Z,2.93
2023-04-08T13:22:48.270Z,3.94
2023-04-08T13:24:10.998Z,3.64
2023-04-08T13:25:23.995Z,3.08
2023-04-08T13:26:30.008Z,2.65
2023-04-08T13:27:44.729Z,2.96
2023-04-08T13:30:52.553Z,2.14
2023-04-08T13:33:33.887Z,1.67
2023-04-08T13:34:38.563Z,2.12
2023-04-08T13:35:45.852Z,2.20
2023-04-08T13:38:13.283Z,2.63
2023-04-08T13:39:28.088Z,2.69
2023-04-08T13:40:35.333Z,2.44
2023-04-08T13:41:44.242Z,3.09
2023-04-08T13:42:58.850Z,3.12
2023-04-08T13:44:13.357Z,3.02
2023-04-08T13:45:28.028Z,3.28
2023-04-08T13:49:39.246Z,2.73
2023-04-08T13:50:43.324Z,2.91
2023-04-08T13:53:30.087Z,3.56
2023-04-08T13:54:24.308Z,1.99
2023-04-08T13:55:28.839Z,1.71
2023-04-08T13:56:32.174Z,1.96
2023-04-08T13:57:34.697Z,2.47
2023-04-08T13:58:38.777Z,2.49
2023-04-08T13:59:42.655Z,2.83
2023-04-08T14:00:46.755Z,3.29
2023-04-08T14:01:51.835Z,14.58
2023-04-08T14:02:57.775Z,7.99
2023-04-08T14:05:35.780Z,4.82
2023-04-08T14:06:40.250Z,4.44
2023-04-08T14:07:44.764Z,4.28
2023-04-08T14:08:49.680Z,3.24
2023-04-08T14:09:53.703Z,2.67
2023-04-08T14:10:59.038Z,2.98
2023-04-08T14:12:14.110Z,2.44
2023-04-08T14:13:28.598Z,2.52
2023-04-08T14:14:32.845Z,2.06
2023-04-08T14:15:40.367Z,2.93
2023-04-08T14:17:03.181Z,2.72
2023-04-08T14:18:09.415Z,2.88
2023-04-08T14:19:16.412Z,4.02
2023-04-08T14:20:19.069Z,2.87
2023-04-08T14:21:39.479Z,3.17
2023-04-08T14:22:45.625Z,2.61
2023-04-08T14:23:51.858Z,2.83
2023-04-08T14:24:58.111Z,2.44
2023-04-08T14:26:08.916Z,2.81
2023-04-08T14:27:10.935Z,2.51
2023-04-08T14:28:13.206Z,2.23
2023-04-08T14:29:16.347Z,2.40
2023-04-08T14:30:18.647Z,2.21
2023-04-08T14:31:22.747Z,2.52
2023-04-08T14:32:24.941Z,2.39
2023-04-08T14:33:27.229Z,2.24
2023-04-08T14:34:31.656Z,2.44
2023-04-08T14:35:33.750Z,3.28
2023-04-08T14:36:36.161Z,2.77
2023-04-08T14:37:38.124Z,3.25
2023-04-08T14:38:40.040Z,2.94